sensor_id;sensor_type;location;lat;lon;timestamp;pressure;altitude;pressure_sealevel;temperature;humidity
8890;BME280;4481;43.406;24.454;2023-04-10T00:00:40;77780.47;;;-144.09;100.00
8890;BME280;4481;43.406;24.454;2023-04-10T00:03:07;77759.56;;;-144.09;100.00
8890;BME280;4481;43.406;24.454;2023-04-10T00:05:33;77776.28;;;-144.09;100.00
8890;BME280;4481;43.406;24.454;2023-04-10T00:08:00;77784.63;;;-144.09;100.00
8890;BME280;4481;43.406;24.454;2023-04-10T00:10:27;77784.63;;;-144.09;100.00
8890;BME280;4481;43.406;24.454;2023-04-10T00:12:56;77780.47;;;-144.09;100.00
8890;BME280;4481;43.406;24.454;2023-04-10T00:15:25;77786.72;;;-144.09;100.00
8890;BME280;4481;43.406;24.454;2023-04-10T00:17:51;77793.00;;;-144.09;100.00
8890;BME280;4481;43.406;24.454;2023-04-10T00:20:19;77805.53;;;-144.09;100.00
8890;BME280;4481;43.406;24.454;2023-04-10T00:22:46;77801.34;;;-144.09;100.00
8890;BME280;4481;43.406;24.454;2023-04-10T00:25:12;77793.00;;;-144.09;100.00
8890;BME280;4481;43.406;24.454;2023-04-10T00:27:38;77793.00;;;-144.09;100.00
8890;BME280;4481;43.406;24.454;2023-04-10T00:30:06;77807.63;;;-144.09;100.00
8890;BME280;4481;43.406;24.454;2023-04-10T00:32:33;77797.19;;;-144.09;100.00
8890;BME280;4481;43.406;24.454;2023-04-10T00:34:59;77793.00;;;-144.09;100.00
8890;BME280;4481;43.406;24.454;2023-04-10T00:37:25;77774.19;;;-144.09;100.00
8890;BME280;4481;43.406;24.454;2023-04-10T00:39:52;77778.38;;;-144.09;100.00
8890;BME280;4481;43.406;24.454;2023-04-10T00:42:18;77799.28;;;-144.09;100.00
8890;BME280;4481;43.406;24.454;2023-04-10T00:44:44;77803.44;;;-144.09;100.00
8890;BME280;4481;43.406;24.454;2023-04-10T00:47:12;77799.28;;;-144.09;100.00
8890;BME280;4481;43.406;24.454;2023-04-10T00:49:39;77811.81;;;-144.09;100.00
8890;BME280;4481;43.406;24.454;2023-04-10T00:52:05;77818.09;;;-144.09;100.00
8890;BME280;4481;43.406;24.454;2023-04-10T00:54:32;77816.00;;;-144.09;100.00
8890;BME280;4481;43.406;24.454;2023-04-10T00:57:01;77795.09;;;-144.09;100.00
8890;BME280;4481;43.406;24.454;2023-04-10T00:59:28;77797.19;;;-144.09;100.00
8890;BME280;4481;43.406;24.454;2023-04-10T01:01:54;77788.81;;;-144.09;100.00
8890;BME280;4481;43.406;24.454;2023-04-10T01:04:22;77782.53;;;-144.09;100.00
8890;BME280;4481;43.406;24.454;2023-04-10T01:06:57;77788.81;;;-144.09;100.00
8890;BME280;4481;43.406;24.454;2023-04-10T01:09:34;77790.91;;;-144.09;100.00
8890;BME280;4481;43.406;24.454;2023-04-10T01:12:07;77801.34;;;-144.09;100.00
8890;BME280;4481;43.406;24.454;2023-04-10T01:14:41;77795.09;;;-144.09;100.00
8890;BME280;4481;43.406;24.454;2023-04-10T01:17:17;77790.91;;;-144.09;100.00
8890;BME280;4481;43.406;24.454;2023-04-10T01:19:57;77799.28;;;-144.09;100.00
8890;BME280;4481;43.406;24.454;2023-04-10T01:22:33;77807.63;;;-144.09;100.00
8890;BME280;4481;43.406;24.454;2023-04-10T01:25:08;77818.09;;;-144.09;100.00
8890;BME280;4481;43.406;24.454;2023-04-10T01:27:53;77826.44;;;-144.09;100.00
8890;BME280;4481;43.406;24.454;2023-04-10T01:30:26;77832.72;;;-144.09;100.00
8890;BME280;4481;43.406;24.454;2023-04-10T01:32:54;77824.34;;;-144.09;100.00
8890;BME280;4481;43.406;24.454;2023-04-10T01:35:25;77809.72;;;-144.09;100.00
8890;BME280;4481;43.406;24.454;2023-04-10T01:37:54;77809.72;;;-144.09;100.00
8890;BME280;4481;43.406;24.454;2023-04-10T01:40:22;77818.09;;;-144.09;100.00
8890;BME280;4481;43.406;24.454;2023-04-10T01:42:54;77826.44;;;-144.09;100.00
8890;BME280;4481;43.406;24.454;2023-04-10T01:45:24;77818.09;;;-144.09;100.00
8890;BME280;4481;43.406;24.454;2023-04-10T01:47:51;77832.72;;;-144.09;100.00
8890;BME280;4481;43.406;24.454;2023-04-10T01:50:19;77830.63;;;-144.09;100.00
8890;BME280;4481;43.406;24.454;2023-04-10T01:52:49;77824.34;;;-144.09;100.00
8890;BME280;4481;43.406;24.454;2023-04-10T01:55:16;77805.53;;;-144.09;100.00
8890;BME280;4481;43.406;24.454;2023-04-10T01:57:43;77811.81;;;-144.09;100.00
8890;BME280;4481;43.406;24.454;2023-04-10T02:00:11;77801.34;;;-144.09;100.00
8890;BME280;4481;43.406;24.454;2023-04-10T02:02:38;77801.34;;;-144.09;100.00
8890;BME280;4481;43.406;24.454;2023-04-10T02:05:05;77805.53;;;-144.09;100.00
8890;BME280;4481;43.406;24.454;2023-04-10T02:07:36;77786.72;;;-144.09;100.00
8890;BME280;4481;43.406;24.454;2023-04-10T02:10:10;77801.34;;;-144.09;100.00
8890;BME280;4481;43.406;24.454;2023-04-10T02:12:39;77807.63;;;-144.09;100.00
8890;BME280;4481;43.406;24.454;2023-04-10T02:15:08;77822.25;;;-144.09;100.00
8890;BME280;4481;43.406;24.454;2023-04-10T02:17:35;77813.91;;;-144.09;100.00
8890;BME280;4481;43.406;24.454;2023-04-10T02:20:06;77824.34;;;-144.09;100.00
8890;BME280;4481;43.406;24.454;2023-04-10T02:22:33;77811.81;;;-144.09;100.00
8890;BME280;4481;43.406;24.454;2023-04-10T02:25:03;77799.28;;;-144.09;100.00
8890;BME280;4481;43.406;24.454;2023-04-10T02:27:30;77805.53;;;-144.09;100.00
8890;BME280;4481;43.406;24.454;2023-04-10T02:29:57;77811.81;;;-144.09;100.00
8890;BME280;4481;43.406;24.454;2023-04-10T02:32:23;77801.34;;;-144.09;100.00
8890;BME280;4481;43.406;24.454;2023-04-10T02:34:49;77807.63;;;-144.09;100.00
8890;BME280;4481;43.406;24.454;2023-04-10T02:37:16;77813.91;;;-144.09;100.00
8890;BME280;4481;43.406;24.454;2023-04-10T02:39:42;77790.91;;;-144.09;100.00
8890;BME280;4481;43.406;24.454;2023-04-10T02:42:09;77799.28;;;-144.09;100.00
8890;BME280;4481;43.406;24.454;2023-04-10T02:44:35;77803.44;;;-144.09;100.00
8890;BME280;4481;43.406;24.454;2023-04-10T02:47:01;77797.19;;;-144.09;100.00
8890;BME280;4481;43.406;24.454;2023-04-10T02:49:27;77790.91;;;-144.09;100.00
8890;BME280;4481;43.406;24.454;2023-04-10T02:51:54;77803.44;;;-144.09;100.00
8890;BME280;4481;43.406;24.454;2023-04-10T02:54:21;77809.72;;;-144.09;100.00
8890;BME280;4481;43.406;24.454;2023-04-10T02:56:47;77793.00;;;-144.09;100.00
8890;BME280;4481;43.406;24.454;2023-04-10T02:59:13;77799.28;;;-144.09;100.00
8890;BME280;4481;43.406;24.454;2023-04-10T03:01:39;77799.28;;;-144.09;100.00
8890;BME280;4481;43.406;24.454;2023-04-10T03:04:05;77780.47;;;-144.09;100.00
8890;BME280;4481;43.406;24.454;2023-04-10T03:06:31;77767.91;;;-144.09;100.00
8890;BME280;4481;43.406;24.454;2023-04-10T03:08:58;77782.53;;;-144.09;100.00
8890;BME280;4481;43.406;24.454;2023-04-10T03:11:24;77797.19;;;-144.09;100.00
8890;BME280;4481;43.406;24.454;2023-04-10T03:13:51;77799.28;;;-144.09;100.00
8890;BME280;4481;43.406;24.454;2023-04-10T03:16:17;77803.44;;;-144.09;100.00
8890;BME280;4481;43.406;24.454;2023-04-10T03:21:09;77797.19;;;-144.09;100.00
8890;BME280;4481;43.406;24.454;2023-04-10T03:23:36;77793.00;;;-144.09;100.00
8890;BME280;4481;43.406;24.454;2023-04-10T03:26:02;77805.53;;;-144.09;100.00
8890;BME280;4481;43.406;24.454;2023-04-10T03:28:30;77795.09;;;-144.09;100.00
8890;BME280;4481;43.406;24.454;2023-04-10T03:30:57;77795.09;;;-144.09;100.00
8890;BME280;4481;43.406;24.454;2023-04-10T03:33:23;77813.91;;;-144.09;100.00
8890;BME280;4481;43.406;24.454;2023-04-10T03:35:49;77838.97;;;-144.09;100.00
8890;BME280;4481;43.406;24.454;2023-04-10T03:38:16;77834.81;;;-144.09;100.00
8890;BME280;4481;43.406;24.454;2023-04-10T03:40:42;77838.97;;;-144.09;100.00
8890;BME280;4481;43.406;24.454;2023-04-10T03:43:08;77824.34;;;-144.09;100.00
8890;BME280;4481;43.406;24.454;2023-04-10T03:45:35;77824.34;;;-144.09;100.00
8890;BME280;4481;43.406;24.454;2023-04-10T03:48:01;77830.63;;;-144.09;100.00
8890;BME280;4481;43.406;24.454;2023-04-10T03:50:27;77834.81;;;-144.09;100.00
8890;BME280;4481;43.406;24.454;2023-04-10T03:52:54;77822.25;;;-144.09;100.00
8890;BME280;4481;43.406;24.454;2023-04-10T03:55:20;77811.81;;;-144.09;100.00
8890;BME280;4481;43.406;24.454;2023-04-10T03:57:46;77807.63;;;-144.09;100.00
8890;BME280;4481;43.406;24.454;2023-04-10T04:00:13;77809.72;;;-144.09;100.00
8890;BME280;4481;43.406;24.454;2023-04-10T04:02:41;77818.09;;;-144.09;100.00
8890;BME280;4481;43.406;24.454;2023-04-10T04:05:08;77786.72;;;-144.09;100.00
8890;BME280;4481;43.406;24.454;2023-04-10T04:07:34;77807.63;;;-144.09;100.00
8890;BME280;4481;43.406;24.454;2023-04-10T04:10:00;77801.34;;;-144.09;100.00
8890;BME280;4481;43.406;24.454;2023-04-10T04:12:27;77793.00;;;-144.09;100.00
8890;BME280;4481;43.406;24.454;2023-04-10T04:32:29;77761.66;;;-144.09;100.00
8890;BME280;4481;43.406;24.454;2023-04-10T04:34:56;77755.38;;;-144.09;100.00
8890;BME280;4481;43.406;24.454;2023-04-10T04:37:22;77728.19;;;-144.09;100.00
8890;BME280;4481;43.406;24.454;2023-04-10T04:39:48;77721.94;;;-144.09;100.00
8890;BME280;4481;43.406;24.454;2023-04-10T04:42:14;77730.28;;;-144.09;100.00
8890;BME280;4481;43.406;24.454;2023-04-10T04:44:40;77717.75;;;-144.09;100.00
8890;BME280;4481;43.406;24.454;2023-04-10T04:47:06;77709.38;;;-144.09;100.00
8890;BME280;4481;43.406;24.454;2023-04-10T04:49:33;77715.66;;;-144.09;100.00
8890;BME280;4481;43.406;24.454;2023-04-10T04:51:59;77715.66;;;-144.09;100.00
8890;BME280;4481;43.406;24.454;2023-04-10T04:54:25;77707.28;;;-144.09;100.00
8890;BME280;4481;43.406;24.454;2023-04-10T04:56:51;77696.84;;;-144.09;100.00
8890;BME280;4481;43.406;24.454;2023-04-10T04:59:18;77694.75;;;-144.09;100.00
8890;BME280;4481;43.406;24.454;2023-04-10T05:01:44;77682.22;;;-144.09;100.00
8890;BME280;4481;43.406;24.454;2023-04-10T05:04:10;77659.22;;;-144.09;100.00
8890;BME280;4481;43.406;24.454;2023-04-10T05:06:37;77646.69;;;-144.09;100.00
8890;BME280;4481;43.406;24.454;2023-04-10T05:09:03;77627.88;;;-144.09;100.00
8890;BME280;4481;43.406;24.454;2023-04-10T05:11:29;77632.03;;;-144.09;100.00
8890;BME280;4481;43.406;24.454;2023-04-10T05:13:56;77596.50;;;-144.09;100.00
8890;BME280;4481;43.406;24.454;2023-04-10T05:16:22;77586.06;;;-144.09;100.00
8890;BME280;4481;43.406;24.454;2023-04-10T05:18:48;77546.34;;;-144.09;100.00
8890;BME280;4481;43.406;24.454;2023-04-10T05:21:14;77525.44;;;-144.09;100.00
8890;BME280;4481;43.406;24.454;2023-04-10T05:23:41;77519.19;;;-144.09;100.00
8890;BME280;4481;43.406;24.454;2023-04-10T05:26:07;77500.38;;;-144.09;100.00
8890;BME280;4481;43.406;24.454;2023-04-10T05:28:33;77496.19;;;-144.09;100.00
8890;BME280;4481;43.406;24.454;2023-04-10T05:30:59;77508.72;;;-144.09;100.00
8890;BME280;4481;43.406;24.454;2023-04-10T05:33:26;77466.94;;;-144.09;100.00
8890;BME280;4481;43.406;24.454;2023-04-10T05:35:52;77462.75;;;-144.09;100.00
8890;BME280;4481;43.406;24.454;2023-04-10T05:38:18;77458.56;;;-144.09;100.00
8890;BME280;4481;43.406;24.454;2023-04-10T05:40:46;77441.84;;;-144.09;100.00
8890;BME280;4481;43.406;24.454;2023-04-10T05:43:12;77452.28;;;-144.09;100.00
8890;BME280;4481;43.406;24.454;2023-04-10T05:45:39;77435.56;;;-144.09;100.00
8890;BME280;4481;43.406;24.454;2023-04-10T05:48:08;77441.84;;;-144.09;100.00
8890;BME280;4481;43.406;24.454;2023-04-10T05:50:34;77437.66;;;-144.09;100.00
8890;BME280;4481;43.406;24.454;2023-04-10T05:53:00;77410.50;;;-144.09;100.00
8890;BME280;4481;43.406;24.454;2023-04-10T05:55:29;77383.31;;;-144.09;100.00
8890;BME280;4481;43.406;24.454;2023-04-10T05:57:56;77339.44;;;-144.09;100.00
8890;BME280;4481;43.406;24.454;2023-04-10T06:00:22;77285.09;;;-144.09;100.00
8890;BME280;4481;43.406;24.454;2023-04-10T06:02:49;77255.81;;;-144.09;98.45
8890;BME280;4481;43.406;24.454;2023-04-10T06:05:15;77241.19;;;-144.09;98.07
8890;BME280;4481;43.406;24.454;2023-04-10T06:07:41;77253.75;;;-144.09;98.80
8890;BME280;4481;43.406;24.454;2023-04-10T06:10:09;77188.94;;;-144.09;97.50
8890;BME280;4481;43.406;24.454;2023-04-10T06:12:35;77174.31;;;-144.09;97.03
8890;BME280;4481;43.406;24.454;2023-04-10T06:15:02;77145.06;;;-144.09;95.03
8890;BME280;4481;43.406;24.454;2023-04-10T06:17:28;77124.16;;;-144.09;95.01
8890;BME280;4481;43.406;24.454;2023-04-10T06:19:55;77136.69;;;-144.09;95.25
8890;BME280;4481;43.406;24.454;2023-04-10T06:22:21;77128.34;;;-144.09;95.38
8890;BME280;4481;43.406;24.454;2023-04-10T06:24:47;77103.25;;;-144.09;94.73
8890;BME280;4481;43.406;24.454;2023-04-10T06:27:13;77161.78;;;-144.09;95.70
8890;BME280;4481;43.406;24.454;2023-04-10T06:29:40;77145.06;;;-144.09;95.52
8890;BME280;4481;43.406;24.454;2023-04-10T06:32:07;77092.81;;;-144.09;94.63
8890;BME280;4481;43.406;24.454;2023-04-10T06:34:33;77119.97;;;-144.09;95.13
8890;BME280;4481;43.406;24.454;2023-04-10T06:36:59;77119.97;;;-144.09;95.37
8890;BME280;4481;43.406;24.454;2023-04-10T06:39:25;77153.41;;;-144.09;96.09
8890;BME280;4481;43.406;24.454;2023-04-10T06:41:51;77101.19;;;-144.09;95.48
8890;BME280;4481;43.406;24.454;2023-04-10T06:44:17;77071.91;;;-144.09;94.38
8890;BME280;4481;43.406;24.454;2023-04-10T06:46:43;77067.75;;;-144.09;93.92
8890;BME280;4481;43.406;24.454;2023-04-10T06:49:11;77071.91;;;-144.09;94.81
8890;BME280;4481;43.406;24.454;2023-04-10T06:51:37;77036.38;;;-144.09;93.88
8890;BME280;4481;43.406;24.454;2023-04-10T06:54:03;77015.50;;;-144.09;92.98
8890;BME280;4481;43.406;24.454;2023-04-10T06:56:29;77015.50;;;-144.09;91.92
8890;BME280;4481;43.406;24.454;2023-04-10T06:58:55;77028.03;;;-144.09;92.42
8890;BME280;4481;43.406;24.454;2023-04-10T07:01:22;77051.00;;;-144.09;93.76
8890;BME280;4481;43.406;24.454;2023-04-10T07:03:48;77023.84;;;-144.09;93.16
8890;BME280;4481;43.406;24.454;2023-04-10T07:06:15;77061.47;;;-144.09;94.10
8890;BME280;4481;43.406;24.454;2023-04-10T07:08:41;77090.72;;;-144.09;94.24
8890;BME280;4481;43.406;24.454;2023-04-10T07:11:07;77117.91;;;-144.09;95.20
8890;BME280;4481;43.406;24.454;2023-04-10T07:13:33;77122.06;;;-144.09;94.61
8890;BME280;4481;43.406;24.454;2023-04-10T07:16:03;77113.72;;;-144.09;95.17
8890;BME280;4481;43.406;24.454;2023-04-10T07:18:29;77113.72;;;-144.09;94.68
8890;BME280;4481;43.406;24.454;2023-04-10T07:20:55;77074.00;;;-144.09;93.76
8890;BME280;4481;43.406;24.454;2023-04-10T07:23:24;77042.66;;;-144.09;93.52
8890;BME280;4481;43.406;24.454;2023-04-10T07:25:50;77061.47;;;-144.09;92.67
8890;BME280;4481;43.406;24.454;2023-04-10T07:28:16;77005.03;;;-144.09;93.02
8890;BME280;4481;43.406;24.454;2023-04-10T07:30:42;76944.44;;;-144.09;91.90
8890;BME280;4481;43.406;24.454;2023-04-10T07:33:08;76902.63;;;-144.09;89.67
8890;BME280;4481;43.406;24.454;2023-04-10T07:35:34;76883.84;;;-144.09;88.49
8890;BME280;4481;43.406;24.454;2023-04-10T07:38:01;76879.66;;;-144.09;88.40
8890;BME280;4481;43.406;24.454;2023-04-10T07:40:27;76802.34;;;-144.09;86.07
8890;BME280;4481;43.406;24.454;2023-04-10T07:42:54;76844.13;;;-144.09;87.58
8890;BME280;4481;43.406;24.454;2023-04-10T07:45:20;76793.97;;;-144.09;86.08
8890;BME280;4481;43.406;24.454;2023-04-10T07:47:46;76775.16;;;-144.09;85.71
8890;BME280;4481;43.406;24.454;2023-04-10T07:50:12;76806.50;;;-144.09;85.46
8890;BME280;4481;43.406;24.454;2023-04-10T07:52:39;76833.69;;;-144.09;85.17
8890;BME280;4481;43.406;24.454;2023-04-10T07:55:05;76862.94;;;-144.09;85.03
8890;BME280;4481;43.406;24.454;2023-04-10T07:57:32;76869.19;;;-144.09;86.88
8890;BME280;4481;43.406;24.454;2023-04-10T07:59:58;76860.84;;;-144.09;85.26
8890;BME280;4481;43.406;24.454;2023-04-10T08:02:25;76856.66;;;-144.09;86.32
8890;BME280;4481;43.406;24.454;2023-04-10T08:04:51;76894.28;;;-144.09;86.59
8890;BME280;4481;43.406;24.454;2023-04-10T08:07:18;76869.19;;;-144.09;86.57
8890;BME280;4481;43.406;24.454;2023-04-10T08:09:45;76850.41;;;-144.09;84.62
8890;BME280;4481;43.406;24.454;2023-04-10T08:12:11;76873.38;;;-144.09;83.55
8890;BME280;4481;43.406;24.454;2023-04-10T08:14:38;76856.66;;;-144.09;84.58
8890;BME280;4481;43.406;24.454;2023-04-10T08:17:04;77023.84;;;-144.09;86.69
8890;BME280;4481;43.406;24.454;2023-04-10T08:19:30;77015.50;;;-144.09;87.16
8890;BME280;4481;43.406;24.454;2023-04-10T08:21:57;77082.38;;;-144.09;89.18
8890;BME280;4481;43.406;24.454;2023-04-10T08:24:23;77094.91;;;-144.09;89.41
8890;BME280;4481;43.406;24.454;2023-04-10T08:26:49;77132.53;;;-144.09;90.40
8890;BME280;4481;43.406;24.454;2023-04-10T08:29:15;77071.91;;;-144.09;89.58
8890;BME280;4481;43.406;24.454;2023-04-10T08:31:42;76967.41;;;-144.09;86.98
8890;BME280;4481;43.406;24.454;2023-04-10T08:34:08;76860.84;;;-144.09;86.25
8890;BME280;4481;43.406;24.454;2023-04-10T08:36:34;76954.88;;;-144.09;84.73
8890;BME280;4481;43.406;24.454;2023-04-10T08:39:00;77005.03;;;-144.09;85.99
8890;BME280;4481;43.406;24.454;2023-04-10T08:41:26;76906.81;;;-144.09;86.02
8890;BME280;4481;43.406;24.454;2023-04-10T08:43:52;76881.75;;;-144.09;83.92
8890;BME280;4481;43.406;24.454;2023-04-10T08:46:18;76839.94;;;-144.09;83.27
8890;BME280;4481;43.406;24.454;2023-04-10T08:48:52;76756.34;;;-144.09;81.68
8890;BME280;4481;43.406;24.454;2023-04-10T08:51:22;76733.38;;;-144.09;79.79
8890;BME280;4481;43.406;24.454;2023-04-10T08:53:55;76766.81;;;-144.09;76.83
8890;BME280;4481;43.406;24.454;2023-04-10T08:56:23;76783.53;;;-144.09;72.96
8890;BME280;4481;43.406;24.454;2023-04-10T08:58:50;76762.63;;;-144.09;70.23
8890;BME280;4481;43.406;24.454;2023-04-10T09:01:19;76729.19;;;-144.09;69.41
8890;BME280;4481;43.406;24.454;2023-04-10T09:03:46;76683.22;;;-144.09;68.18
8890;BME280;4481;43.406;24.454;2023-04-10T09:06:13;76720.84;;;-144.09;67.25
8890;BME280;4481;43.406;24.454;2023-04-10T09:08:41;76716.66;;;-144.09;67.40
8890;BME280;4481;43.406;24.454;2023-04-10T09:11:07;76750.09;;;-144.09;68.75
8890;BME280;4481;43.406;24.454;2023-04-10T09:13:35;76748.00;;;-144.09;69.72
8890;BME280;4481;43.406;24.454;2023-04-10T09:16:01;76706.22;;;-144.09;68.90
8890;BME280;4481;43.406;24.454;2023-04-10T09:18:41;76708.28;;;-144.09;68.58
8890;BME280;4481;43.406;24.454;2023-04-10T09:21:08;76729.19;;;-144.09;68.87
8890;BME280;4481;43.406;24.454;2023-04-10T09:23:36;76756.34;;;-144.09;69.37
8890;BME280;4481;43.406;24.454;2023-04-10T09:26:08;76760.53;;;-144.09;68.00
8890;BME280;4481;43.406;24.454;2023-04-10T09:28:55;76791.88;;;-144.09;68.94
8890;BME280;4481;43.406;24.454;2023-04-10T09:31:27;76775.16;;;-144.09;68.55
8890;BME280;4481;43.406;24.454;2023-04-10T09:34:06;76773.06;;;-144.09;68.11
8890;BME280;4481;43.406;24.454;2023-04-10T09:36:32;76760.53;;;-144.09;68.92
8890;BME280;4481;43.406;24.454;2023-04-10T09:38:59;76764.72;;;-144.09;67.00
8890;BME280;4481;43.406;24.454;2023-04-10T09:41:25;76710.38;;;-144.09;67.56
8890;BME280;4481;43.406;24.454;2023-04-10T09:44:04;76687.41;;;-144.09;67.24
8890;BME280;4481;43.406;24.454;2023-04-10T09:46:31;76687.41;;;-144.09;64.40
8890;BME280;4481;43.406;24.454;2023-04-10T09:48:57;76712.47;;;-144.09;64.90
8890;BME280;4481;43.406;24.454;2023-04-10T09:51:29;76748.00;;;-144.09;66.61
8890;BME280;4481;43.406;24.454;2023-04-10T09:53:55;76727.09;;;-144.09;66.74
8890;BME280;4481;43.406;24.454;2023-04-10T09:56:24;76687.41;;;-144.09;67.86
8890;BME280;4481;43.406;24.454;2023-04-10T09:58:52;76693.66;;;-144.09;66.42
8890;BME280;4481;43.406;24.454;2023-04-10T10:01:20;76729.19;;;-144.09;68.23
8890;BME280;4481;43.406;24.454;2023-04-10T10:03:47;76697.84;;;-144.09;67.94
8890;BME280;4481;43.406;24.454;2023-04-10T10:06:14;76697.84;;;-144.09;64.88
8890;BME280;4481;43.406;24.454;2023-04-10T10:08:40;76706.22;;;-144.09;64.83
8890;BME280;4481;43.406;24.454;2023-04-10T10:11:07;76706.22;;;-144.09;65.50
8890;BME280;4481;43.406;24.454;2023-04-10T10:13:42;76771.00;;;-144.09;66.20
8890;BME280;4481;43.406;24.454;2023-04-10T10:16:14;76760.53;;;-144.09;65.78
8890;BME280;4481;43.406;24.454;2023-04-10T10:18:45;76752.19;;;-144.09;65.53
8890;BME280;4481;43.406;24.454;2023-04-10T10:21:13;76739.63;;;-144.09;65.66
8890;BME280;4481;43.406;24.454;2023-04-10T10:23:41;76737.56;;;-144.09;65.60
8890;BME280;4481;43.406;24.454;2023-04-10T10:26:09;76741.72;;;-144.09;64.93
8890;BME280;4481;43.406;24.454;2023-04-10T10:28:35;76739.63;;;-144.09;65.06
8890;BME280;4481;43.406;24.454;2023-04-10T10:31:03;76750.09;;;-144.09;65.58
8890;BME280;4481;43.406;24.454;2023-04-10T10:33:32;76783.53;;;-144.09;66.91
8890;BME280;4481;43.406;24.454;2023-04-10T10:36:00;76812.78;;;-144.09;68.81
8890;BME280;4481;43.406;24.454;2023-04-10T10:38:27;76793.97;;;-144.09;64.74
8890;BME280;4481;43.406;24.454;2023-04-10T10:40:59;76810.69;;;-144.09;63.99
8890;BME280;4481;43.406;24.454;2023-04-10T10:43:35;76810.69;;;-144.09;64.03
8890;BME280;4481;43.406;24.454;2023-04-10T10:46:06;76806.50;;;-144.09;64.33
8890;BME280;4481;43.406;24.454;2023-04-10T10:48:34;76802.34;;;-144.09;63.55
8890;BME280;4481;43.406;24.454;2023-04-10T10:51:00;76798.16;;;-144.09;64.27
8890;BME280;4481;43.406;24.454;2023-04-10T10:53:38;76793.97;;;-144.09;64.36
8890;BME280;4481;43.406;24.454;2023-04-10T10:56:33;76760.53;;;-144.09;63.30
8890;BME280;4481;43.406;24.454;2023-04-10T10:59:00;76739.63;;;-144.09;62.56
8890;BME280;4481;43.406;24.454;2023-04-10T11:01:27;76708.28;;;-144.09;62.90
8890;BME280;4481;43.406;24.454;2023-04-10T11:03:53;76689.50;;;-144.09;61.91
8890;BME280;4481;43.406;24.454;2023-04-10T11:06:20;76683.22;;;-144.09;61.35
8890;BME280;4481;43.406;24.454;2023-04-10T11:08:48;76754.28;;;-144.09;61.15
8890;BME280;4481;43.406;24.454;2023-04-10T11:11:16;76806.50;;;-144.09;61.36
8890;BME280;4481;43.406;24.454;2023-04-10T11:14:12;76812.78;;;-144.09;62.14
8890;BME280;4481;43.406;24.454;2023-04-10T11:16:45;76785.63;;;-144.09;62.25
8890;BME280;4481;43.406;24.454;2023-04-10T11:19:11;76793.97;;;-144.09;63.31
8890;BME280;4481;43.406;24.454;2023-04-10T11:22:08;76835.78;;;-144.09;64.01
8890;BME280;4481;43.406;24.454;2023-04-10T11:24:54;76785.63;;;-144.09;63.96
8890;BME280;4481;43.406;24.454;2023-04-10T11:27:42;76743.81;;;-144.09;62.12
8890;BME280;4481;43.406;24.454;2023-04-10T11:30:26;76727.09;;;-144.09;61.97
8890;BME280;4481;43.406;24.454;2023-04-10T11:32:53;76687.41;;;-144.09;60.94
8890;BME280;4481;43.406;24.454;2023-04-10T11:35:20;76720.84;;;-144.09;61.55
8890;BME280;4481;43.406;24.454;2023-04-10T11:37:48;76748.00;;;-144.09;62.14
8890;BME280;4481;43.406;24.454;2023-04-10T11:40:14;76745.91;;;-144.09;62.49
8890;BME280;4481;43.406;24.454;2023-04-10T11:42:41;76720.84;;;-144.09;63.00
8890;BME280;4481;43.406;24.454;2023-04-10T11:45:25;76676.94;;;-144.09;61.68
8890;BME280;4481;43.406;24.454;2023-04-10T11:47:51;76668.59;;;-144.09;60.14
8890;BME280;4481;43.406;24.454;2023-04-10T11:50:18;76672.78;;;-144.09;59.11
8890;BME280;4481;43.406;24.454;2023-04-10T11:52:45;76708.28;;;-144.09;60.50
8890;BME280;4481;43.406;24.454;2023-04-10T11:55:11;76664.41;;;-144.09;60.88
8890;BME280;4481;43.406;24.454;2023-04-10T11:57:38;76620.53;;;-144.09;60.06
8890;BME280;4481;43.406;24.454;2023-04-10T12:00:05;76630.97;;;-144.09;60.53
8890;BME280;4481;43.406;24.454;2023-04-10T12:02:31;76658.16;;;-144.09;60.27
8890;BME280;4481;43.406;24.454;2023-04-10T12:04:58;76641.44;;;-144.09;60.24
8890;BME280;4481;43.406;24.454;2023-04-10T12:07:25;76651.88;;;-144.09;60.14
8890;BME280;4481;43.406;24.454;2023-04-10T12:09:55;76670.69;;;-144.09;60.75
8890;BME280;4481;43.406;24.454;2023-04-10T12:12:33;76656.06;;;-144.09;59.13
8890;BME280;4481;43.406;24.454;2023-04-10T12:14:59;76624.72;;;-144.09;59.74
8890;BME280;4481;43.406;24.454;2023-04-10T12:17:26;76612.19;;;-144.09;57.49
8890;BME280;4481;43.406;24.454;2023-04-10T12:19:52;76578.75;;;-144.09;55.04
8890;BME280;4481;43.406;24.454;2023-04-10T12:22:19;76614.25;;;-144.09;55.52
8890;BME280;4481;43.406;24.454;2023-04-10T12:24:47;76618.44;;;-144.09;57.34
8890;BME280;4481;43.406;24.454;2023-04-10T12:27:17;76589.19;;;-144.09;56.17
8890;BME280;4481;43.406;24.454;2023-04-10T12:29:44;76543.22;;;-144.09;55.33
8890;BME280;4481;43.406;24.454;2023-04-10T12:32:10;76507.69;;;-144.09;55.96
8890;BME280;4481;43.406;24.454;2023-04-10T12:34:36;76524.41;;;-144.09;58.00
8890;BME280;4481;43.406;24.454;2023-04-10T12:37:03;76551.56;;;-144.09;58.18
8890;BME280;4481;43.406;24.454;2023-04-10T12:39:29;76532.78;;;-144.09;57.53
8890;BME280;4481;43.406;24.454;2023-04-10T12:42:10;76547.41;;;-144.09;56.52
8890;BME280;4481;43.406;24.454;2023-04-10T12:44:49;76572.47;;;-144.09;56.65
8890;BME280;4481;43.406;24.454;2023-04-10T12:47:15;76595.47;;;-144.09;58.08
8890;BME280;4481;43.406;24.454;2023-04-10T12:49:41;76572.47;;;-144.09;56.91
8890;BME280;4481;43.406;24.454;2023-04-10T12:52:07;76526.50;;;-144.09;56.72
8890;BME280;4481;43.406;24.454;2023-04-10T12:54:35;76532.78;;;-144.09;56.32
8890;BME280;4481;43.406;24.454;2023-04-10T12:57:02;76553.66;;;-144.09;57.97
8890;BME280;4481;43.406;24.454;2023-04-10T12:59:30;76587.09;;;-144.09;57.98
8890;BME280;4481;43.406;24.454;2023-04-10T13:01:56;76614.25;;;-144.09;59.02
8890;BME280;4481;43.406;24.454;2023-04-10T13:04:22;76614.25;;;-144.09;58.07
8890;BME280;4481;43.406;24.454;2023-04-10T13:06:49;76626.81;;;-144.09;58.51
8890;BME280;4481;43.406;24.454;2023-04-10T13:09:17;76582.91;;;-144.09;58.61